createdAt,value
2023-03-15T00:01:52.847Z,80.16
2023-03-15T00:04:19.912Z,80.12
2023-03-15T00:06:47.288Z,80.18
2023-03-15T00:09:14.303Z,80.33
2023-03-15T00:11:41.279Z,80.61
2023-03-15T00:14:08.960Z,80.37
2023-03-15T00:16:36.657Z,79.94
2023-03-15T00:19:03.669Z,80.32
2023-03-15T00:21:30.665Z,80.68
2023-03-15T00:23:57.787Z,79.98
2023-03-15T00:26:24.749Z,79.77
2023-03-15T00:28:51.955Z,79.46
2023-03-15T00:31:23.637Z,80.08
2023-03-15T00:33:53.927Z,80.16
2023-03-15T00:36:25.405Z,80.56
2023-03-15T00:38:55.468Z,80.66
2023-03-15T00:41:23.528Z,79.73
2023-03-15T00:43:51.132Z,77.89
2023-03-15T00:46:20.356Z,76.34
2023-03-15T00:48:51.929Z,73.51
2023-03-15T00:51:24.269Z,71.91
2023-03-15T00:53:53.354Z,69.51
2023-03-15T00:56:27.318Z,70.00
2023-03-15T00:58:54.345Z,69.74
2023-03-15T01:01:28.826Z,69.62
2023-03-15T01:03:57.514Z,69.67
2023-03-15T01:06:28.251Z,70.10
2023-03-15T01:08:56.769Z,70.24
2023-03-15T01:11:27.996Z,70.87
2023-03-15T01:13:58.081Z,72.16
2023-03-15T01:16:26.262Z,72.09
2023-03-15T01:18:53.934Z,72.14
2023-03-15T01:21:23.266Z,72.64
2023-03-15T01:23:51.152Z,72.97
2023-03-15T01:26:19.189Z,73.35
2023-03-15T01:28:46.416Z,73.54
2023-03-15T01:31:33.828Z,73.52
2023-03-15T01:34:01.126Z,73.36
2023-03-15T01:36:28.302Z,73.61
2023-03-15T01:38:55.348Z,73.49
2023-03-15T01:41:24.846Z,73.42
2023-03-15T01:43:52.241Z,73.19
2023-03-15T01:46:23.889Z,72.84
2023-03-15T01:49:33.736Z,72.66
2023-03-15T01:52:13.020Z,72.47
2023-03-15T01:54:54.312Z,72.34
2023-03-15T01:57:37.431Z,72.26
2023-03-15T02:00:14.501Z,71.74
2023-03-15T02:02:48.878Z,72.21
2023-03-15T02:05:27.034Z,72.08
2023-03-15T02:07:56.496Z,72.08
2023-03-15T02:10:37.062Z,71.66
2023-03-15T02:13:05.216Z,71.41
2023-03-15T02:15:32.648Z,70.78
2023-03-15T02:17:59.711Z,71.01
2023-03-15T02:20:42.677Z,71.03
2023-03-15T02:23:13.856Z,71.10
2023-03-15T02:26:21.709Z,71.29
2023-03-15T02:28:49.712Z,70.75
2023-03-15T02:31:16.948Z,70.70
2023-03-15T02:33:49.122Z,70.77
2023-03-15T02:36:26.215Z,70.81
2023-03-15T02:38:54.630Z,69.75
2023-03-15T02:41:27.211Z,70.10
2023-03-15T02:44:01.285Z,69.97
2023-03-15T02:46:29.078Z,69.81
2023-03-15T02:48:56.630Z,69.35
2023-03-15T02:51:27.074Z,69.31
2023-03-15T02:53:54.090Z,69.11
2023-03-15T02:56:21.712Z,69.21
2023-03-15T02:58:48.774Z,69.28
2023-03-15T03:01:17.731Z,69.12
2023-03-15T03:03:47.262Z,69.52
2023-03-15T03:06:16.359Z,69.29
2023-03-15T03:08:47.127Z,69.08
2023-03-15T03:11:16.276Z,69.22
2023-03-15T03:13:43.587Z,69.20
2023-03-15T03:16:11.077Z,68.91
2023-03-15T03:18:38.669Z,68.85
2023-03-15T03:21:08.092Z,69.20
2023-03-15T03:23:36.624Z,69.20
2023-03-15T03:26:11.526Z,69.16
2023-03-15T03:28:38.562Z,68.96
2023-03-15T03:31:05.789Z,69.15
2023-03-15T03:33:32.884Z,69.20
2023-03-15T03:36:04.611Z,69.51
2023-03-15T03:38:31.696Z,68.78
2023-03-15T03:40:58.723Z,68.79
2023-03-15T03:43:25.790Z,68.99
2023-03-15T03:45:52.978Z,68.72
2023-03-15T03:48:19.988Z,69.04
2023-03-15T03:50:46.992Z,68.96
2023-03-15T03:53:14.020Z,69.01
2023-03-15T03:55:42.750Z,69.44
2023-03-15T03:58:10.465Z,69.52
2023-03-15T04:00:37.647Z,69.38
2023-03-15T04:03:05.034Z,69.15
2023-03-15T04:05:32.211Z,68.84
2023-03-15T04:07:59.199Z,69.01
2023-03-15T04:10:29.334Z,68.85
2023-03-15T04:12:57.623Z,69.37
2023-03-15T04:15:25.191Z,69.12
2023-03-15T04:17:55.979Z,68.95
2023-03-15T04:20:27.340Z,69.34
2023-03-15T04:22:54.753Z,69.07
2023-03-15T04:25:26.486Z,68.90
2023-03-15T04:27:59.989Z,68.87
2023-03-15T04:30:28.231Z,68.35
2023-03-15T04:33:03.452Z,68.57
2023-03-15T04:35:33.593Z,68.59
2023-03-15T04:38:01.612Z,68.26
2023-03-15T04:40:30.089Z,68.11
2023-03-15T04:42:57.199Z,68.04
2023-03-15T04:45:25.223Z,68.32
2023-03-15T04:47:53.404Z,67.90
2023-03-15T04:50:21.857Z,67.19
2023-03-15T04:52:49.851Z,67.63
2023-03-15T04:55:17.141Z,67.54
2023-03-15T04:57:44.201Z,67.20
2023-03-15T05:00:13.110Z,66.38
2023-03-15T05:02:41.803Z,66.53
2023-03-15T05:05:11.115Z,65.50
2023-03-15T05:07:39.006Z,64.92
2023-03-15T05:10:07.573Z,64.41
2023-03-15T05:12:34.580Z,63.99
2023-03-15T05:15:01.671Z,63.94
2023-03-15T05:17:28.673Z,63.47
2023-03-15T05:19:55.718Z,63.72
2023-03-15T05:22:25.845Z,63.83
2023-03-15T05:24:56.327Z,64.06
2023-03-15T05:27:23.586Z,64.07
2023-03-15T05:29:51.455Z,64.19
2023-03-15T05:32:18.509Z,64.01
2023-03-15T05:34:45.541Z,64.20
2023-03-15T05:37:12.584Z,63.82
2023-03-15T05:39:41.751Z,63.84
2023-03-15T05:42:08.786Z,63.73
2023-03-15T05:44:38.280Z,63.66
2023-03-15T05:47:05.375Z,63.46
2023-03-15T05:49:32.410Z,63.13
2023-03-15T05:51:59.418Z,62.58
2023-03-15T05:54:26.531Z,61.96
2023-03-15T05:56:53.529Z,61.82
2023-03-15T05:59:20.750Z,61.69
2023-03-15T06:01:47.813Z,61.16
2023-03-15T06:04:14.839Z,60.90
2023-03-15T06:06:41.920Z,60.66
2023-03-15T06:09:09.056Z,60.71
2023-03-15T06:11:36.082Z,60.48
2023-03-15T06:14:03.189Z,61.05
2023-03-15T06:16:30.282Z,60.60
2023-03-15T06:18:57.391Z,61.02
2023-03-15T06:21:24.793Z,60.70
2023-03-15T06:23:51.790Z,60.39
2023-03-15T06:26:19.583Z,60.94
2023-03-15T06:28:46.592Z,60.80
2023-03-15T06:31:15.126Z,60.50
2023-03-15T06:33:42.513Z,60.54
2023-03-15T06:36:10.321Z,60.59
2023-03-15T06:38:37.313Z,60.21
2023-03-15T06:41:05.449Z,60.50
2023-03-15T06:43:32.440Z,59.85
2023-03-15T06:46:00.193Z,59.83
2023-03-15T06:48:29.618Z,60.13
2023-03-15T06:50:56.737Z,59.65
2023-03-15T06:53:23.795Z,59.74
2023-03-15T06:55:51.573Z,59.07
2023-03-15T06:58:18.720Z,59.07
2023-03-15T07:00:45.832Z,58.79
2023-03-15T07:03:12.818Z,58.89
2023-03-15T07:05:39.834Z,58.44
2023-03-15T07:08:07.345Z,58.57
2023-03-15T07:10:34.390Z,58.06
2023-03-15T07:13:01.451Z,58.34
2023-03-15T07:15:28.581Z,57.61
2023-03-15T07:17:55.591Z,57.41
2023-03-15T07:20:22.567Z,57.72
2023-03-15T07:22:49.916Z,57.50
2023-03-15T07:25:23.854Z,57.86
2023-03-15T07:27:51.776Z,57.73
2023-03-15T07:30:20.938Z,58.00
2023-03-15T07:32:48.198Z,58.44
2023-03-15T07:35:16.955Z,58.57
2023-03-15T07:37:44.857Z,58.62
2023-03-15T07:40:13.429Z,58.66
2023-03-15T07:42:40.969Z,58.18
2023-03-15T07:45:09.093Z,58.27
2023-03-15T07:47:36.746Z,58.54
2023-03-15T07:50:05.981Z,59.04
2023-03-15T07:52:32.931Z,58.80
2023-03-15T07:54:59.980Z,58.02
2023-03-15T07:57:28.871Z,57.55
2023-03-15T07:59:56.327Z,57.04
2023-03-15T08:02:23.504Z,56.76
2023-03-15T08:04:51.464Z,56.37
2023-03-15T08:07:18.834Z,56.24
2023-03-15T08:09:46.417Z,55.93
2023-03-15T08:12:13.609Z,55.76
2023-03-15T08:14:40.689Z,55.56
2023-03-15T08:17:12.989Z,55.58
2023-03-15T08:19:40.223Z,55.53
2023-03-15T08:22:07.748Z,54.65
2023-03-15T08:24:35.508Z,54.67
2023-03-15T08:27:02.728Z,54.53
2023-03-15T08:29:29.768Z,54.21
2023-03-15T08:31:57.203Z,53.97
2023-03-15T08:34:25.458Z,54.55
2023-03-15T08:36:52.510Z,54.41
2023-03-15T08:39:19.638Z,54.34
2023-03-15T08:41:47.525Z,53.78
2023-03-15T08:44:14.560Z,52.16
2023-03-15T08:46:41.624Z,51.07
2023-03-15T08:49:08.676Z,49.18
2023-03-15T08:51:35.710Z,47.74
2023-03-15T08:54:05.606Z,46.99
2023-03-15T08:56:32.600Z,46.10
2023-03-15T08:58:59.747Z,46.20
2023-03-15T09:01:27.087Z,46.35
2023-03-15T09:03:54.129Z,45.40
2023-03-15T09:06:21.315Z,44.83
2023-03-15T09:08:48.302Z,44.10
2023-03-15T09:11:15.346Z,44.13
2023-03-15T09:13:42.594Z,44.12
2023-03-15T09:16:09.678Z,43.61
2023-03-15T09:18:36.752Z,43.40
2023-03-15T09:21:05.571Z,43.06
2023-03-15T09:23:33.083Z,43.17
2023-03-15T09:26:00.154Z,42.88
2023-03-15T09:28:27.290Z,42.76
2023-03-15T09:30:54.701Z,42.57
2023-03-15T09:33:22.546Z,42.11
2023-03-15T09:35:53.117Z,41.26
2023-03-15T09:38:20.386Z,40.30
2023-03-15T09:40:47.468Z,39.62
2023-03-15T09:44:11.061Z,39.21
2023-03-15T09:46:56.465Z,38.44
2023-03-15T09:49:53.578Z,38.23
2023-03-15T09:52:32.870Z,38.30
2023-03-15T09:55:19.945Z,38.05
2023-03-15T09:58:10.387Z,36.98
2023-03-15T10:00:54.700Z,36.66
2023-03-15T10:03:48.077Z,36.00
2023-03-15T10:06:29.546Z,35.68
2023-03-15T10:08:59.594Z,35.28
2023-03-15T10:11:31.929Z,35.44
2023-03-15T10:14:37.438Z,34.64
2023-03-15T10:17:14.244Z,34.30
2023-03-15T10:19:54.904Z,34.15
2023-03-15T10:22:26.772Z,33.18
2023-03-15T10:25:26.369Z,33.49
2023-03-15T10:28:21.148Z,32.39
2023-03-15T10:30:51.534Z,31.52
2023-03-15T10:33:37.183Z,31.11
2023-03-15T10:36:21.597Z,30.09
2023-03-15T10:38:50.393Z,30.14
2023-03-15T10:41:39.669Z,30.21
2023-03-15T10:44:25.094Z,30.39
2023-03-15T10:47:23.130Z,30.17
2023-03-15T10:49:59.591Z,30.13
2023-03-15T10:52:38.929Z,30.43
2023-03-15T10:55:18.623Z,30.84
2023-03-15T10:58:12.019Z,31.21
2023-03-15T11:00:39.040Z,32.12
2023-03-15T11:03:15.772Z,31.94
2023-03-15T11:05:47.722Z,32.21
2023-03-15T11:08:24.642Z,31.96
2023-03-15T11:11:00.025Z,31.99
2023-03-15T11:13:33.617Z,31.85
2023-03-15T11:16:22.135Z,31.86
2023-03-15T11:19:03.629Z,31.91
2023-03-15T11:21:36.834Z,32.04
2023-03-15T11:24:06.791Z,31.57
2023-03-15T11:26:38.059Z,31.95
2023-03-15T11:29:17.155Z,31.67
2023-03-15T11:31:45.077Z,31.75
2023-03-15T11:34:39.166Z,31.95
2023-03-15T11:37:45.747Z,32.23
2023-03-15T11:40:38.143Z,31.93
2023-03-15T11:43:21.609Z,31.94
2023-03-15T11:46:03.590Z,31.87
2023-03-15T11:48:47.590Z,32.52
2023-03-15T11:51:14.930Z,32.99
2023-03-15T11:54:12.955Z,33.03
2023-03-15T11:57:17.770Z,32.91
2023-03-15T11:59:46.087Z,32.98
2023-03-15T12:02:15.915Z,32.57
2023-03-15T12:04:49.313Z,32.41
2023-03-15T12:07:19.141Z,32.38
2023-03-15T12:09:57.250Z,32.76
2023-03-15T12:12:26.949Z,32.06
2023-03-15T12:15:14.253Z,31.91
2023-03-15T12:17:51.546Z,31.89
2023-03-15T12:20:41.225Z,32.14
2023-03-15T12:23:17.239Z,31.99
2023-03-15T12:25:59.715Z,32.42
2023-03-15T12:29:12.432Z,33.23
2023-03-15T12:32:08.796Z,32.70
2023-03-15T12:34:55.180Z,32.95
2023-03-15T12:37:44.614Z,32.89
2023-03-15T12:40:20.632Z,32.57
2023-03-15T12:42:47.530Z,32.67
2023-03-15T12:45:20.481Z,32.28
2023-03-15T12:48:12.598Z,32.99
2023-03-15T12:50:58.684Z,33.44
2023-03-15T12:53:43.896Z,33.37
2023-03-15T12:56:39.676Z,33.53
2023-03-15T12:59:23.937Z,33.98
2023-03-15T13:01:52.072Z,34.55
2023-03-15T13:04:21.111Z,33.79
2023-03-15T13:07:15.899Z,34.07
2023-03-15T13:10:03.148Z,34.41
2023-03-15T13:12:45.650Z,35.04
2023-03-15T13:15:26.086Z,35.03
2023-03-15T13:18:20.579Z,34.67
2023-03-15T13:21:37.804Z,34.92
2023-03-15T13:24:14.701Z,34.96
2023-03-15T13:27:12.462Z,34.99
2023-03-15T13:29:39.721Z,35.06
2023-03-15T13:32:19.729Z,35.01
2023-03-15T13:34:48.311Z,34.78
2023-03-15T13:37:31.905Z,34.41
2023-03-15T13:40:05.774Z,34.51
2023-03-15T13:42:32.821Z,34.76
2023-03-15T13:45:12.454Z,34.52
2023-03-15T13:47:42.778Z,34.33
2023-03-15T13:50:18.557Z,34.36
2023-03-15T13:52:46.837Z,34.36
2023-03-15T13:55:20.241Z,33.68
2023-03-15T13:57:53.428Z,33.39
2023-03-15T14:00:23.306Z,33.69
2023-03-15T14:03:05.933Z,33.84
2023-03-15T14:05:49.078Z,34.30
2023-03-15T14:08:21.781Z,34.73
2023-03-15T14:11:26.430Z,34.82
2023-03-15T14:14:04.284Z,34.98
2023-03-15T14:17:01.158Z,34.97
2023-03-15T14:19:33.228Z,35.37
2023-03-15T14:22:17.820Z,35.71
2023-03-15T14:24:52.199Z,36.17
2023-03-15T14:27:25.272Z,36.37
2023-03-15T14:29:59.120Z,36.54
2023-03-15T14:32:39.325Z,36.18
2023-03-15T14:35:23.992Z,36.33
2023-03-15T14:38:17.822Z,36.59
2023-03-15T14:40:45.376Z,36.89
2023-03-15T14:43:12.441Z,37.01
2023-03-15T14:45:43.839Z,36.79
2023-03-15T14:48:29.060Z,36.98
2023-03-15T14:50:56.983Z,37.82
2023-03-15T14:53:26.616Z,37.45
2023-03-15T14:55:53.633Z,36.78
2023-03-15T14:58:22.617Z,36.64
2023-03-15T15:00:53.647Z,36.34
2023-03-15T15:03:41.280Z,36.45
2023-03-15T15:06:13.061Z,36.03
2023-03-15T15:08:43.808Z,36.07
2023-03-15T15:11:11.619Z,36.55
2023-03-15T15:13:41.123Z,36.50
2023-03-15T15:16:08.646Z,36.45
2023-03-15T15:18:37.257Z,36.27
2023-03-15T15:21:23.871Z,36.77
2023-03-15T15:23:58.510Z,36.71
2023-03-15T15:26:29.904Z,36.87
2023-03-15T15:28:57.951Z,37.12
2023-03-15T15:31:27.825Z,37.79
2023-03-15T15:33:56.722Z,37.84
2023-03-15T15:36:53.266Z,38.36
2023-03-15T15:39:27.726Z,38.44
2023-03-15T15:41:54.730Z,38.45
2023-03-15T15:44:25.666Z,38.63
2023-03-15T15:46:53.091Z,39.03
2023-03-15T15:49:21.118Z,39.31
2023-03-15T15:51:52.223Z,39.46
2023-03-15T15:54:24.873Z,39.75
2023-03-15T15:56:58.296Z,39.85
2023-03-15T15:59:27.187Z,39.81
2023-03-15T16:02:01.011Z,40.24
2023-03-15T16:04:29.426Z,40.39
2023-03-15T16:07:01.732Z,40.74
2023-03-15T16:09:30.842Z,40.69
2023-03-15T16:11:58.615Z,40.84
2023-03-15T16:14:25.680Z,40.80
2023-03-15T16:16:52.681Z,41.43
2023-03-15T16:19:19.721Z,41.67
2023-03-15T16:21:51.640Z,41.73
2023-03-15T16:24:30.682Z,42.08
2023-03-15T16:27:04.527Z,42.45
2023-03-15T16:29:53.003Z,42.69
2023-03-15T16:32:33.383Z,42.72
2023-03-15T16:35:15.637Z,43.14
2023-03-15T16:37:43.963Z,43.31
2023-03-15T16:40:29.581Z,43.88
2023-03-15T16:42:57.425Z,44.16
2023-03-15T16:45:25.248Z,44.33
2023-03-15T16:47:52.902Z,44.54
2023-03-15T16:50:20.715Z,44.90
2023-03-15T16:52:51.754Z,45.09
2023-03-15T16:55:34.623Z,45.21
2023-03-15T16:58:11.164Z,45.67
2023-03-15T17:00:38.188Z,46.21
2023-03-15T17:03:05.231Z,46.14
2023-03-15T17:05:33.003Z,46.42
2023-03-15T17:08:00.888Z,46.79
2023-03-15T17:10:31.748Z,46.71
2023-03-15T17:13:03.136Z,47.11
2023-03-15T17:15:31.928Z,47.15
2023-03-15T17:17:58.959Z,47.37
2023-03-15T17:20:28.487Z,47.42
2023-03-15T17:23:04.119Z,47.72
2023-03-15T17:25:32.508Z,47.67
2023-03-15T17:28:00.413Z,47.86
2023-03-15T17:30:34.977Z,48.23
2023-03-15T17:33:02.629Z,48.33
2023-03-15T17:35:40.580Z,48.30
2023-03-15T17:38:18.098Z,48.40
2023-03-15T17:40:45.412Z,48.68
2023-03-15T17:43:15.603Z,48.97
2023-03-15T17:45:43.627Z,48.72
2023-03-15T17:48:11.178Z,48.61
2023-03-15T17:50:38.970Z,49.13
2023-03-15T17:53:15.598Z,49.12
2023-03-15T17:55:42.979Z,49.16
2023-03-15T17:58:16.862Z,49.54
2023-03-15T18:00:44.041Z,49.62
2023-03-15T18:03:15.643Z,50.02
2023-03-15T18:05:43.310Z,50.18
2023-03-15T18:08:18.354Z,50.50
2023-03-15T18:10:47.603Z,50.74
2023-03-15T18:13:18.267Z,50.94
2023-03-15T18:15:46.515Z,50.94
2023-03-15T18:18:13.616Z,50.85
2023-03-15T18:20:41.216Z,51.31
2023-03-15T18:23:11.808Z,51.43
2023-03-15T18:25:38.980Z,51.55
2023-03-15T18:28:06.460Z,51.72
2023-03-15T18:30:34.519Z,51.98
2023-03-15T18:33:01.854Z,52.04
2023-03-15T18:35:35.945Z,52.02
2023-03-15T18:38:05.011Z,52.44
2023-03-15T18:40:34.256Z,52.65
2023-03-15T18:43:02.307Z,52.67
2023-03-15T18:45:36.068Z,52.55
2023-03-15T18:48:04.552Z,52.55
2023-03-15T18:50:31.848Z,52.86
2023-03-15T18:52:59.027Z,52.77
2023-03-15T18:55:26.920Z,52.77
2023-03-15T18:57:55.485Z,52.93
2023-03-15T19:00:27.037Z,52.86
2023-03-15T19:03:00.762Z,52.81
2023-03-15T19:05:31.888Z,53.00
2023-03-15T19:07:59.248Z,52.99
2023-03-15T19:10:27.649Z,53.15
2023-03-15T19:12:54.958Z,53.52
2023-03-15T19:15:23.861Z,53.30
2023-03-15T19:17:54.564Z,53.83
2023-03-15T19:20:23.552Z,53.88
2023-03-15T19:22:52.384Z,54.00
2023-03-15T19:25:20.499Z,54.10
2023-03-15T19:27:48.021Z,53.95
2023-03-15T19:30:21.302Z,53.70
2023-03-15T19:32:50.249Z,53.59
2023-03-15T19:35:19.463Z,53.86
2023-03-15T19:37:47.941Z,53.98
2023-03-15T19:40:16.526Z,54.00
2023-03-15T19:42:43.583Z,53.96
2023-03-15T19:45:12.112Z,54.19
2023-03-15T19:47:39.533Z,54.32
2023-03-15T19:50:10.920Z,54.42
2023-03-15T19:52:46.064Z,54.44
2023-03-15T19:55:19.965Z,54.57
2023-03-15T19:57:48.271Z,55.20
2023-03-15T20:00:18.802Z,55.24
2023-03-15T20:02:48.024Z,55.15
2023-03-15T20:05:18.550Z,54.90
2023-03-15T20:07:47.722Z,54.94
2023-03-15T20:10:15.357Z,55.11
2023-03-15T20:12:43.033Z,55.16
2023-03-15T20:15:12.290Z,55.32
2023-03-15T20:17:41.311Z,55.44
2023-03-15T20:20:11.520Z,55.46
2023-03-15T20:22:41.417Z,55.43
2023-03-15T20:25:11.009Z,55.40
2023-03-15T20:27:38.464Z,55.32
2023-03-15T20:30:07.831Z,55.39
2023-03-15T20:32:35.024Z,55.47
2023-03-15T20:35:02.434Z,55.49
2023-03-15T20:37:31.282Z,55.80
2023-03-15T20:39:58.313Z,55.62
2023-03-15T20:42:25.836Z,55.75
2023-03-15T20:44:53.208Z,55.87
2023-03-15T20:47:20.235Z,55.81
2023-03-15T20:49:47.254Z,56.02
2023-03-15T20:52:14.236Z,56.03
2023-03-15T20:54:41.262Z,56.13
2023-03-15T20:57:08.281Z,55.73
2023-03-15T20:59:35.311Z,55.75
2023-03-15T21:02:03.257Z,56.12
2023-03-15T21:04:31.280Z,56.05
2023-03-15T21:07:04.143Z,56.07
2023-03-15T21:09:32.240Z,56.12
2023-03-15T21:12:02.578Z,56.34
2023-03-15T21:14:29.698Z,56.14
2023-03-15T21:16:56.867Z,56.22
2023-03-15T21:19:24.847Z,56.45
2023-03-15T21:21:51.825Z,56.65
2023-03-15T21:24:19.009Z,56.78
2023-03-15T21:26:48.617Z,56.88
2023-03-15T21:29:15.690Z,57.08
2023-03-15T21:31:42.818Z,57.38
2023-03-15T21:34:09.877Z,57.36
2023-03-15T21:36:36.911Z,57.30
2023-03-15T21:39:05.962Z,57.55
2023-03-15T21:41:34.312Z,57.60
2023-03-15T21:44:01.343Z,57.64
2023-03-15T21:46:28.456Z,57.53
2023-03-15T21:48:56.001Z,57.79
2023-03-15T21:51:23.002Z,57.68
2023-03-15T21:53:50.440Z,58.00
2023-03-15T21:56:18.613Z,58.32
2023-03-15T21:58:46.323Z,58.18
2023-03-15T22:01:14.086Z,58.21
2023-03-15T22:03:42.568Z,58.21
2023-03-15T22:06:09.872Z,58.52
2023-03-15T22:08:36.844Z,58.62
2023-03-15T22:11:04.637Z,58.31
2023-03-15T22:13:31.962Z,58.62
2023-03-15T22:15:59.854Z,58.78
2023-03-15T22:18:28.732Z,59.08
2023-03-15T22:20:56.413Z,58.85
2023-03-15T22:23:23.827Z,59.17
2023-03-15T22:25:52.919Z,58.77
2023-03-15T22:28:21.461Z,58.84
2023-03-15T22:30:49.780Z,58.99
2023-03-15T22:33:19.342Z,59.07
2023-03-15T22:35:46.463Z,59.13
2023-03-15T22:38:13.474Z,59.09
2023-03-15T22:40:42.849Z,59.11
2023-03-15T22:43:09.976Z,59.46
2023-03-15T22:45:37.109Z,59.48
2023-03-15T22:48:04.304Z,59.47
2023-03-15T22:50:31.473Z,59.78
2023-03-15T22:52:58.524Z,59.75
2023-03-15T22:55:25.925Z,59.85
2023-03-15T22:57:53.979Z,59.73
2023-03-15T23:00:23.625Z,59.98
2023-03-15T23:02:50.908Z,60.27
2023-03-15T23:05:19.656Z,60.15
2023-03-15T23:07:47.294Z,60.15
2023-03-15T23:10:15.395Z,60.12
2023-03-15T23:12:42.826Z,60.04
2023-03-15T23:15:12.158Z,60.36
2023-03-15T23:17:39.229Z,60.53
2023-03-15T23:20:07.497Z,60.90
2023-03-15T23:22:34.784Z,60.84
2023-03-15T23:25:01.932Z,60.90
2023-03-15T23:27:29.113Z,60.97
2023-03-15T23:29:56.320Z,61.03
2023-03-15T23:32:27.290Z,60.96
2023-03-15T23:34:54.389Z,60.93
2023-03-15T23:37:21.572Z,61.37
2023-03-15T23:39:48.576Z,61.20
2023-03-15T23:42:15.674Z,61.38
2023-03-15T23:44:43.420Z,61.98
2023-03-15T23:47:12.396Z,61.76
2023-03-15T23:49:39.408Z,61.82
2023-03-15T23:52:06.738Z,61.62
2023-03-15T23:54:40.076Z,61.79
2023-03-15T23:57:09.982Z,61.95
2023-03-15T23:59:38.269Z,61.81
